Iver Prosperity — V7LP8 — position and weather

sailwx.info

Track history (hours):
 
Tides and Currents Weather Stations Pressure Air Temp Water Temp Dewpoint Dewpoint Depression Visibility Wind Speed Wind Dir Waves Ship Positions

Iver Prosperity

Last reported at 2018-Apr-23 05:07 UTC. Time now 2018-Apr-25 22:04 UTC.
Position N 43°39' W 068°52'.

Length 184 m; draft 10.2 m.

Type: Ship (hazmat cat A). MMSI: 538002784.

Date/timePositionNaut miles runAvg speedWind from/ knotsBaromVisibWave heightAir tempDewpointWater temp
2018-Apr-23 05:07N 43°39' W 068°52'1911.8
2018-Apr-23 03:29N 43°38' W 069°18'3212.0
2018-Apr-23 00:51N 43°37' W 070°02'  
2018-Apr-20 19:18N 43°39' W 069°11'613.2
2018-Apr-20 18:50N 43°39' W 069°02'412.7
2018-Apr-20 18:30N 43°39' W 068°56'  
2018-Apr-13 18:15N 43°37' W 069°10'312.4
2018-Apr-13 18:00N 43°38' W 069°06'612.4
2018-Apr-13 17:30N 43°38' W 068°57'  
Track history (hours):
 
Tides and Currents Weather Stations Pressure Air Temp Water Temp Dewpoint Dewpoint Depression Visibility Wind Speed Wind Dir Waves Ship Positions

Iver Prosperity

Last reported at 2018-Apr-23 05:07 UTC. Time now 2018-Apr-25 22:04 UTC.
Position N 43°39' W 068°52'.

Length 184 m; draft 10.2 m.

Type: Ship (hazmat cat A). MMSI: 538002784.

Date/timePositionNaut miles runAvg speedWind from/ knotsBaromVisibWave heightAir tempDewpointWater temp
2018-Apr-23 05:07N 43°39' W 068°52'1911.8
2018-Apr-23 03:29N 43°38' W 069°18'3212.0
2018-Apr-23 00:51N 43°37' W 070°02'  
2018-Apr-20 19:18N 43°39' W 069°11'613.2
2018-Apr-20 18:50N 43°39' W 069°02'412.7
2018-Apr-20 18:30N 43°39' W 068°56'  
2018-Apr-13 18:15N 43°37' W 069°10'312.4
2018-Apr-13 18:00N 43°38' W 069°06'612.4
2018-Apr-13 17:30N 43°38' W 068°57'  

Dump ship's entire track history